sensor_id;sensor_type;location;lat;lon;timestamp;pressure;altitude;pressure_sealevel;temperature;humidity
17505;BME280;8870;50.950;11.762;2023-01-13T00:01:06;97498.75;;;8.78;100.00
17505;BME280;8870;50.950;11.762;2023-01-13T00:06:30;97496.44;;;8.75;100.00
17505;BME280;8870;50.950;11.762;2023-01-13T00:11:57;97483.34;;;8.72;100.00
17505;BME280;8870;50.950;11.762;2023-01-13T00:17:16;97485.69;;;8.75;100.00
17505;BME280;8870;50.950;11.762;2023-01-13T00:22:47;97492.41;;;8.71;100.00
17505;BME280;8870;50.950;11.762;2023-01-13T00:28:14;97484.03;;;8.66;100.00
17505;BME280;8870;50.950;11.762;2023-01-13T00:33:46;97483.16;;;8.73;100.00
17505;BME280;8870;50.950;11.762;2023-01-13T00:39:06;97469.41;;;8.76;100.00
17505;BME280;8870;50.950;11.762;2023-01-13T00:44:39;97472.09;;;8.76;100.00
17505;BME280;8870;50.950;11.762;2023-01-13T00:49:59;97467.69;;;8.84;100.00
17505;BME280;8870;50.950;11.762;2023-01-13T00:55:30;97457.09;;;8.90;100.00
17505;BME280;8870;50.950;11.762;2023-01-13T01:00:50;97457.94;;;8.91;100.00
17505;BME280;8870;50.950;11.762;2023-01-13T01:06:23;97454.72;;;8.96;100.00
17505;BME280;8870;50.950;11.762;2023-01-13T01:11:43;97453.34;;;9.00;100.00
17505;BME280;8870;50.950;11.762;2023-01-13T01:17:16;97457.56;;;8.94;100.00
17505;BME280;8870;50.950;11.762;2023-01-13T01:22:35;97461.09;;;8.94;100.00
17505;BME280;8870;50.950;11.762;2023-01-13T01:28:06;97452.19;;;8.94;100.00
17505;BME280;8870;50.950;11.762;2023-01-13T01:33:27;97447.69;;;8.94;100.00
17505;BME280;8870;50.950;11.762;2023-01-13T01:38:58;97455.41;;;8.89;100.00
17505;BME280;8870;50.950;11.762;2023-01-13T01:50:21;97447.06;;;8.84;100.00
17505;BME280;8870;50.950;11.762;2023-01-13T01:55:40;97433.63;;;8.84;100.00
17505;BME280;8870;50.950;11.762;2023-01-13T02:01:13;97445.38;;;8.83;100.00
17505;BME280;8870;50.950;11.762;2023-01-13T02:06:34;97440.50;;;8.87;100.00
17505;BME280;8870;50.950;11.762;2023-01-13T02:12:05;97445.81;;;8.95;100.00
17505;BME280;8870;50.950;11.762;2023-01-13T02:17:49;97440.28;;;8.97;100.00
17505;BME280;8870;50.950;11.762;2023-01-13T02:23:47;97437.53;;;9.05;100.00
17505;BME280;8870;50.950;11.762;2023-01-13T02:29:55;97430.69;;;9.02;100.00
17505;BME280;8870;50.950;11.762;2023-01-13T02:35:48;97432.19;;;9.05;100.00
17505;BME280;8870;50.950;11.762;2023-01-13T02:41:11;97423.09;;;9.06;100.00
17505;BME280;8870;50.950;11.762;2023-01-13T02:47:04;97424.31;;;9.03;100.00
17505;BME280;8870;50.950;11.762;2023-01-13T02:52:27;97424.31;;;9.03;100.00
17505;BME280;8870;50.950;11.762;2023-01-13T02:58:03;97420.94;;;9.01;100.00
17505;BME280;8870;50.950;11.762;2023-01-13T03:03:25;97427.00;;;9.03;100.00
17505;BME280;8870;50.950;11.762;2023-01-13T03:09:01;97412.88;;;9.01;100.00
17505;BME280;8870;50.950;11.762;2023-01-13T03:14:26;97421.09;;;9.00;100.00
17505;BME280;8870;50.950;11.762;2023-01-13T03:20:05;97408.06;;;8.97;100.00
17505;BME280;8870;50.950;11.762;2023-01-13T03:25:28;97401.66;;;8.98;100.00
17505;BME280;8870;50.950;11.762;2023-01-13T03:31:05;97403.50;;;8.97;100.00
17505;BME280;8870;50.950;11.762;2023-01-13T03:36:29;97399.31;;;8.94;100.00
17505;BME280;8870;50.950;11.762;2023-01-13T03:42:05;97405.88;;;8.92;100.00
17505;BME280;8870;50.950;11.762;2023-01-13T03:47:28;97399.66;;;8.91;100.00
17505;BME280;8870;50.950;11.762;2023-01-13T03:53:08;97415.78;;;8.91;100.00
17505;BME280;8870;50.950;11.762;2023-01-13T03:58:29;97418.47;;;8.91;100.00
17505;BME280;8870;50.950;11.762;2023-01-13T04:03:59;97420.34;;;8.91;100.00
17505;BME280;8870;50.950;11.762;2023-01-13T04:09:32;97431.91;;;8.91;100.00
17505;BME280;8870;50.950;11.762;2023-01-13T04:14:55;97419.47;;;8.90;100.00
17505;BME280;8870;50.950;11.762;2023-01-13T04:20:26;97419.84;;;8.87;100.00
17505;BME280;8870;50.950;11.762;2023-01-13T04:25:54;97414.81;;;8.84;100.00
17505;BME280;8870;50.950;11.762;2023-01-13T04:31:25;97414.50;;;8.79;100.00
17505;BME280;8870;50.950;11.762;2023-01-13T04:36:43;97408.84;;;8.74;100.00
17505;BME280;8870;50.950;11.762;2023-01-13T04:42:16;97403.81;;;8.71;100.00
17505;BME280;8870;50.950;11.762;2023-01-13T04:47:35;97407.00;;;8.66;100.00
17505;BME280;8870;50.950;11.762;2023-01-13T04:53:08;97394.13;;;8.61;100.00
17505;BME280;8870;50.950;11.762;2023-01-13T04:58:28;97386.41;;;8.58;100.00
17505;BME280;8870;50.950;11.762;2023-01-13T05:04:01;97376.88;;;8.47;100.00
17505;BME280;8870;50.950;11.762;2023-01-13T05:09:19;97384.41;;;8.44;100.00
17505;BME280;8870;50.950;11.762;2023-01-13T05:14:53;97387.94;;;8.36;100.00
17505;BME280;8870;50.950;11.762;2023-01-13T05:20:24;97396.84;;;8.37;100.00
17505;BME280;8870;50.950;11.762;2023-01-13T05:25:56;97388.97;;;8.35;100.00
17505;BME280;8870;50.950;11.762;2023-01-13T05:31:29;97385.59;;;8.41;100.00
17505;BME280;8870;50.950;11.762;2023-01-13T05:36:48;97391.97;;;8.48;100.00
17505;BME280;8870;50.950;11.762;2023-01-13T05:42:19;97398.66;;;8.53;100.00
17505;BME280;8870;50.950;11.762;2023-01-13T05:47:53;97385.72;;;8.56;100.00
17505;BME280;8870;50.950;11.762;2023-01-13T05:53:24;97378.34;;;8.58;100.00
17505;BME280;8870;50.950;11.762;2023-01-13T05:58:43;97372.44;;;8.63;100.00
17505;BME280;8870;50.950;11.762;2023-01-13T06:04:17;97383.38;;;8.61;100.00
17505;BME280;8870;50.950;11.762;2023-01-13T06:09:35;97382.38;;;8.62;100.00
17505;BME280;8870;50.950;11.762;2023-01-13T06:15:08;97372.63;;;8.61;100.00
17505;BME280;8870;50.950;11.762;2023-01-13T06:20:29;97386.72;;;8.63;100.00
17505;BME280;8870;50.950;11.762;2023-01-13T06:26:04;97383.19;;;8.63;100.00
17505;BME280;8870;50.950;11.762;2023-01-13T06:31:25;97374.13;;;8.64;100.00
17505;BME280;8870;50.950;11.762;2023-01-13T06:36:59;97371.25;;;8.66;100.00
17505;BME280;8870;50.950;11.762;2023-01-13T06:42:18;97373.31;;;8.63;100.00
17505;BME280;8870;50.950;11.762;2023-01-13T06:48:02;97371.44;;;8.64;100.00
17505;BME280;8870;50.950;11.762;2023-01-13T06:53:23;97387.75;;;8.62;100.00
17505;BME280;8870;50.950;11.762;2023-01-13T06:58:54;97389.75;;;8.60;100.00
17505;BME280;8870;50.950;11.762;2023-01-13T07:04:12;97397.81;;;8.60;100.00
17505;BME280;8870;50.950;11.762;2023-01-13T07:09:45;97426.19;;;8.55;100.00
17505;BME280;8870;50.950;11.762;2023-01-13T07:15:06;97508.91;;;7.68;100.00
17505;BME280;8870;50.950;11.762;2023-01-13T07:20:43;97569.28;;;7.38;100.00
17505;BME280;8870;50.950;11.762;2023-01-13T07:26:05;97563.16;;;7.11;100.00
17505;BME280;8870;50.950;11.762;2023-01-13T07:31:36;97550.94;;;6.82;100.00
17505;BME280;8870;50.950;11.762;2023-01-13T07:36:57;97568.41;;;6.60;100.00
17505;BME280;8870;50.950;11.762;2023-01-13T07:42:30;97537.59;;;6.29;100.00
17505;BME280;8870;50.950;11.762;2023-01-13T07:48:01;97536.63;;;6.12;100.00
17505;BME280;8870;50.950;11.762;2023-01-13T07:53:33;97543.03;;;6.01;100.00
17505;BME280;8870;50.950;11.762;2023-01-13T07:58:54;97548.81;;;5.97;100.00
17505;BME280;8870;50.950;11.762;2023-01-13T08:04:25;97547.47;;;5.93;100.00
17505;BME280;8870;50.950;11.762;2023-01-13T08:09:43;97563.81;;;5.90;100.00
17505;BME280;8870;50.950;11.762;2023-01-13T08:15:16;97581.97;;;5.86;100.00
17505;BME280;8870;50.950;11.762;2023-01-13T08:20:35;97595.34;;;5.86;100.00
17505;BME280;8870;50.950;11.762;2023-01-13T08:26:08;97588.84;;;5.89;100.00
17505;BME280;8870;50.950;11.762;2023-01-13T08:31:29;97591.06;;;5.93;100.00
17505;BME280;8870;50.950;11.762;2023-01-13T08:37:00;97582.56;;;5.98;100.00
17505;BME280;8870;50.950;11.762;2023-01-13T08:42:18;97585.97;;;6.00;100.00
17505;BME280;8870;50.950;11.762;2023-01-13T08:47:52;97573.84;;;6.06;100.00
17505;BME280;8870;50.950;11.762;2023-01-13T08:53:11;97601.25;;;6.08;100.00
17505;BME280;8870;50.950;11.762;2023-01-13T08:58:42;97597.38;;;6.02;100.00
17505;BME280;8870;50.950;11.762;2023-01-13T09:04:03;97572.31;;;6.03;100.00
17505;BME280;8870;50.950;11.762;2023-01-13T09:09:34;97524.31;;;6.01;100.00
17505;BME280;8870;50.950;11.762;2023-01-13T09:14:53;97526.34;;;5.99;100.00
17505;BME280;8870;50.950;11.762;2023-01-13T09:20:28;97546.47;;;5.94;100.00
17505;BME280;8870;50.950;11.762;2023-01-13T09:25:46;97565.47;;;5.91;100.00
17505;BME280;8870;50.950;11.762;2023-01-13T09:31:17;97572.81;;;5.89;100.00
17505;BME280;8870;50.950;11.762;2023-01-13T09:36:38;97582.50;;;5.90;100.00
17505;BME280;8870;50.950;11.762;2023-01-13T09:42:16;97595.59;;;5.93;100.00
17505;BME280;8870;50.950;11.762;2023-01-13T09:47:52;97600.59;;;5.96;100.00
17505;BME280;8870;50.950;11.762;2023-01-13T09:53:30;97596.25;;;5.95;100.00
17505;BME280;8870;50.950;11.762;2023-01-13T09:58:49;97595.59;;;5.93;100.00
17505;BME280;8870;50.950;11.762;2023-01-13T10:04:26;97594.19;;;5.89;100.00
17505;BME280;8870;50.950;11.762;2023-01-13T10:09:50;97578.16;;;5.89;100.00
17505;BME280;8870;50.950;11.762;2023-01-13T10:15:25;97573.50;;;5.91;100.00
17505;BME280;8870;50.950;11.762;2023-01-13T10:20:51;97579.84;;;5.90;100.00
17505;BME280;8870;50.950;11.762;2023-01-13T10:26:38;97584.88;;;5.93;100.00
17505;BME280;8870;50.950;11.762;2023-01-13T10:32:11;97581.06;;;5.95;100.00
17505;BME280;8870;50.950;11.762;2023-01-13T10:37:29;97564.16;;;5.95;100.00
17505;BME280;8870;50.950;11.762;2023-01-13T10:43:06;97556.13;;;5.95;100.00
17505;BME280;8870;50.950;11.762;2023-01-13T10:48:32;97545.16;;;5.98;100.00
17505;BME280;8870;50.950;11.762;2023-01-13T10:54:17;97531.78;;;5.98;100.00
17505;BME280;8870;50.950;11.762;2023-01-13T10:59:39;97557.25;;;6.02;100.00
17505;BME280;8870;50.950;11.762;2023-01-13T11:05:20;97546.69;;;6.19;100.00
17505;BME280;8870;50.950;11.762;2023-01-13T11:10:44;97549.25;;;6.46;100.00
17505;BME280;8870;50.950;11.762;2023-01-13T11:16:19;97541.72;;;6.76;100.00
17505;BME280;8870;50.950;11.762;2023-01-13T11:21:40;97532.41;;;6.89;100.00
17505;BME280;8870;50.950;11.762;2023-01-13T11:27:18;97522.75;;;6.96;100.00
17505;BME280;8870;50.950;11.762;2023-01-13T11:32:52;97513.56;;;7.07;100.00
17505;BME280;8870;50.950;11.762;2023-01-13T11:38:32;97510.47;;;7.20;100.00
17505;BME280;8870;50.950;11.762;2023-01-13T11:43:53;97511.84;;;7.32;100.00
17505;BME280;8870;50.950;11.762;2023-01-13T11:49:30;97490.41;;;7.40;100.00
17505;BME280;8870;50.950;11.762;2023-01-13T11:55:08;97484.41;;;7.55;100.00
17505;BME280;8870;50.950;11.762;2023-01-13T12:01:00;97483.25;;;7.66;100.00
17505;BME280;8870;50.950;11.762;2023-01-13T12:06:30;97488.78;;;7.72;100.00
17505;BME280;8870;50.950;11.762;2023-01-13T12:12:16;97499.53;;;7.81;100.00
17505;BME280;8870;50.950;11.762;2023-01-13T12:17:44;97506.06;;;7.95;100.00
17505;BME280;8870;50.950;11.762;2023-01-13T12:23:26;97500.88;;;8.01;100.00
17505;BME280;8870;50.950;11.762;2023-01-13T12:28:48;97500.00;;;8.01;100.00
17505;BME280;8870;50.950;11.762;2023-01-13T12:34:29;97519.47;;;7.86;100.00
17505;BME280;8870;50.950;11.762;2023-01-13T12:40:00;97526.34;;;7.89;100.00
17505;BME280;8870;50.950;11.762;2023-01-13T12:45:33;97513.75;;;7.90;100.00
17505;BME280;8870;50.950;11.762;2023-01-13T12:50:58;97520.97;;;7.81;100.00
17505;BME280;8870;50.950;11.762;2023-01-13T12:56:40;97545.44;;;7.94;100.00
17505;BME280;8870;50.950;11.762;2023-01-13T13:02:27;97548.81;;;8.05;100.00
17505;BME280;8870;50.950;11.762;2023-01-13T13:08:02;97547.47;;;8.00;100.00
17505;BME280;8870;50.950;11.762;2023-01-13T13:13:42;97564.56;;;7.91;100.00
17505;BME280;8870;50.950;11.762;2023-01-13T13:19:42;97568.59;;;8.04;100.00
17505;BME280;8870;50.950;11.762;2023-01-13T13:25:19;97580.28;;;7.78;100.00
17505;BME280;8870;50.950;11.762;2023-01-13T13:31:09;97576.47;;;8.05;100.00
17505;BME280;8870;50.950;11.762;2023-01-13T13:36:43;97579.34;;;8.20;100.00
17505;BME280;8870;50.950;11.762;2023-01-13T13:42:22;97583.69;;;8.29;100.00
17505;BME280;8870;50.950;11.762;2023-01-13T13:47:57;97595.78;;;8.33;100.00
17505;BME280;8870;50.950;11.762;2023-01-13T13:53:30;97589.38;;;8.10;100.00
17505;BME280;8870;50.950;11.762;2023-01-13T13:58:51;97619.75;;;8.10;100.00
17505;BME280;8870;50.950;11.762;2023-01-13T14:04:25;97621.88;;;7.90;100.00
17505;BME280;8870;50.950;11.762;2023-01-13T14:09:45;97624.56;;;7.82;100.00
17505;BME280;8870;50.950;11.762;2023-01-13T14:15:34;97622.50;;;7.67;100.00
17505;BME280;8870;50.950;11.762;2023-01-13T14:20:59;97612.47;;;7.69;100.00
17505;BME280;8870;50.950;11.762;2023-01-13T14:26:31;97622.56;;;7.92;100.00
17505;BME280;8870;50.950;11.762;2023-01-13T14:32:02;97615.88;;;8.05;100.00
17505;BME280;8870;50.950;11.762;2023-01-13T14:37:28;97612.19;;;8.06;100.00
17505;BME280;8870;50.950;11.762;2023-01-13T14:43:02;97593.06;;;8.00;100.00
17505;BME280;8870;50.950;11.762;2023-01-13T14:48:21;97614.72;;;7.99;100.00
17505;BME280;8870;50.950;11.762;2023-01-13T14:53:59;97613.16;;;7.88;100.00
17505;BME280;8870;50.950;11.762;2023-01-13T14:59:33;97619.81;;;7.67;100.00
17505;BME280;8870;50.950;11.762;2023-01-13T15:05:31;97617.56;;;7.54;100.00
17505;BME280;8870;50.950;11.762;2023-01-13T15:10:54;97619.84;;;7.33;100.00
17505;BME280;8870;50.950;11.762;2023-01-13T15:16:27;97631.91;;;7.02;100.00
17505;BME280;8870;50.950;11.762;2023-01-13T15:21:46;97616.25;;;6.89;100.00
17505;BME280;8870;50.950;11.762;2023-01-13T15:27:24;97638.78;;;6.78;100.00
17505;BME280;8870;50.950;11.762;2023-01-13T15:32:57;97643.16;;;6.61;100.00
17505;BME280;8870;50.950;11.762;2023-01-13T15:38:18;97636.53;;;6.47;100.00
17505;BME280;8870;50.950;11.762;2023-01-13T15:43:52;97654.44;;;6.29;100.00
17505;BME280;8870;50.950;11.762;2023-01-13T15:49:26;97656.78;;;6.14;100.00
17505;BME280;8870;50.950;11.762;2023-01-13T15:54:58;97669.69;;;6.19;100.00
17505;BME280;8870;50.950;11.762;2023-01-13T16:00:20;97677.66;;;6.10;100.00
17505;BME280;8870;50.950;11.762;2023-01-13T16:05:51;97690.19;;;6.10;100.00
17505;BME280;8870;50.950;11.762;2023-01-13T16:11:09;97693.94;;;6.17;100.00
17505;BME280;8870;50.950;11.762;2023-01-13T16:16:44;97709.22;;;6.25;100.00
17505;BME280;8870;50.950;11.762;2023-01-13T16:22:02;97690.34;;;6.26;100.00
17505;BME280;8870;50.950;11.762;2023-01-13T16:27:33;97718.47;;;6.30;100.00
17505;BME280;8870;50.950;11.762;2023-01-13T16:32:54;97721.84;;;6.32;100.00
17505;BME280;8870;50.950;11.762;2023-01-13T16:38:27;97721.53;;;6.36;100.00
17505;BME280;8870;50.950;11.762;2023-01-13T16:43:46;97727.81;;;6.44;100.00
17505;BME280;8870;50.950;11.762;2023-01-13T16:49:20;97733.84;;;6.46;100.00
17505;BME280;8870;50.950;11.762;2023-01-13T16:54:38;97736.81;;;6.43;100.00
17505;BME280;8870;50.950;11.762;2023-01-13T17:00:10;97750.13;;;6.35;100.00
17505;BME280;8870;50.950;11.762;2023-01-13T17:05:31;97755.47;;;6.35;100.00
17505;BME280;8870;50.950;11.762;2023-01-13T17:11:02;97769.84;;;6.34;100.00
17505;BME280;8870;50.950;11.762;2023-01-13T17:16:21;97771.28;;;6.28;100.00
17505;BME280;8870;50.950;11.762;2023-01-13T17:21:55;97783.53;;;6.31;100.00
17505;BME280;8870;50.950;11.762;2023-01-13T17:27:13;97780.84;;;6.31;100.00
17505;BME280;8870;50.950;11.762;2023-01-13T17:32:44;97802.94;;;6.33;100.00
17505;BME280;8870;50.950;11.762;2023-01-13T17:38:05;97809.59;;;6.29;100.00
17505;BME280;8870;50.950;11.762;2023-01-13T17:43:37;97815.25;;;6.26;100.00
17505;BME280;8870;50.950;11.762;2023-01-13T17:48:55;97823.56;;;6.23;100.00
17505;BME280;8870;50.950;11.762;2023-01-13T17:54:29;97822.16;;;6.19;100.00
17505;BME280;8870;50.950;11.762;2023-01-13T17:59:47;97824.81;;;6.19;100.00
17505;BME280;8870;50.950;11.762;2023-01-13T18:05:20;97839.19;;;6.17;100.00
17505;BME280;8870;50.950;11.762;2023-01-13T18:10:43;97842.47;;;6.11;100.00
17505;BME280;8870;50.950;11.762;2023-01-13T18:16:17;97852.75;;;6.06;100.00
17505;BME280;8870;50.950;11.762;2023-01-13T18:21:37;97859.53;;;6.00;100.00
17505;BME280;8870;50.950;11.762;2023-01-13T18:27:27;97878.97;;;5.93;100.00
17505;BME280;8870;50.950;11.762;2023-01-13T18:32:59;97873.31;;;5.96;100.00
17505;BME280;8870;50.950;11.762;2023-01-13T18:38:17;97886.38;;;5.99;100.00
17505;BME280;8870;50.950;11.762;2023-01-13T18:43:51;97878.38;;;5.99;100.00
17505;BME280;8870;50.950;11.762;2023-01-13T18:49:09;97894.69;;;5.96;100.00
17505;BME280;8870;50.950;11.762;2023-01-13T18:54:40;97893.31;;;6.01;100.00
17505;BME280;8870;50.950;11.762;2023-01-13T19:00:02;97891.63;;;6.00;100.00
17505;BME280;8870;50.950;11.762;2023-01-13T19:05:34;97891.03;;;5.97;100.00
17505;BME280;8870;50.950;11.762;2023-01-13T19:10:52;97919.22;;;6.01;100.00
17505;BME280;8870;50.950;11.762;2023-01-13T19:16:28;97931.59;;;6.02;100.00
17505;BME280;8870;50.950;11.762;2023-01-13T19:21:46;97925.38;;;6.01;100.00
17505;BME280;8870;50.950;11.762;2023-01-13T19:27:18;97939.63;;;6.02;100.00
17505;BME280;8870;50.950;11.762;2023-01-13T19:32:40;97947.38;;;6.05;100.00
17505;BME280;8870;50.950;11.762;2023-01-13T19:38:12;97952.13;;;6.11;100.00
17505;BME280;8870;50.950;11.762;2023-01-13T19:43:31;97953.81;;;6.12;100.00
17505;BME280;8870;50.950;11.762;2023-01-13T19:49:18;97944.81;;;6.13;100.00
17505;BME280;8870;50.950;11.762;2023-01-13T19:54:36;97951.69;;;6.06;100.00
17505;BME280;8870;50.950;11.762;2023-01-13T20:00:09;97958.03;;;5.95;100.00
17505;BME280;8870;50.950;11.762;2023-01-13T20:05:32;97963.13;;;5.79;100.00
17505;BME280;8870;50.950;11.762;2023-01-13T20:11:04;97980.28;;;5.66;100.00
17505;BME280;8870;50.950;11.762;2023-01-13T20:16:34;97993.78;;;5.55;100.00
17505;BME280;8870;50.950;11.762;2023-01-13T20:22:08;98029.22;;;5.47;100.00
17505;BME280;8870;50.950;11.762;2023-01-13T20:27:34;98037.38;;;5.46;100.00
17505;BME280;8870;50.950;11.762;2023-01-13T20:33:05;98038.50;;;5.43;100.00
17505;BME280;8870;50.950;11.762;2023-01-13T20:38:26;98034.69;;;5.46;100.00
17505;BME280;8870;50.950;11.762;2023-01-13T20:44:00;98044.13;;;5.50;100.00
17505;BME280;8870;50.950;11.762;2023-01-13T20:49:20;98047.50;;;5.62;100.00
17505;BME280;8870;50.950;11.762;2023-01-13T20:54:54;98044.31;;;5.68;100.00
17505;BME280;8870;50.950;11.762;2023-01-13T21:00:13;98066.09;;;5.73;100.00
17505;BME280;8870;50.950;11.762;2023-01-13T21:05:44;98057.81;;;5.76;100.00
17505;BME280;8870;50.950;11.762;2023-01-13T21:11:05;98078.19;;;5.77;100.00
17505;BME280;8870;50.950;11.762;2023-01-13T21:16:38;98078.47;;;5.74;100.00
17505;BME280;8870;50.950;11.762;2023-01-13T21:21:56;98088.91;;;5.77;100.00
17505;BME280;8870;50.950;11.762;2023-01-13T21:27:30;98102.41;;;5.76;100.00
17505;BME280;8870;50.950;11.762;2023-01-13T21:32:48;98115.91;;;5.74;100.00
17505;BME280;8870;50.950;11.762;2023-01-13T21:38:21;98113.38;;;5.73;100.00
17505;BME280;8870;50.950;11.762;2023-01-13T21:43:43;98135.28;;;5.66;100.00
17505;BME280;8870;50.950;11.762;2023-01-13T21:49:27;98136.41;;;5.64;100.00
17505;BME280;8870;50.950;11.762;2023-01-13T21:54:46;98129.38;;;5.63;100.00
17505;BME280;8870;50.950;11.762;2023-01-13T22:00:32;98121.34;;;5.63;100.00
17505;BME280;8870;50.950;11.762;2023-01-13T22:05:54;98127.69;;;5.62;100.00
17505;BME280;8870;50.950;11.762;2023-01-13T22:11:26;98116.16;;;5.61;100.00
17505;BME280;8870;50.950;11.762;2023-01-13T22:16:46;98132.88;;;5.53;100.00
17505;BME280;8870;50.950;11.762;2023-01-13T22:22:22;98144.25;;;5.46;100.00
17505;BME280;8870;50.950;11.762;2023-01-13T22:27:41;98138.06;;;5.45;100.00
17505;BME280;8870;50.950;11.762;2023-01-13T22:33:19;98140.84;;;5.44;100.00
17505;BME280;8870;50.950;11.762;2023-01-13T22:38:38;98154.09;;;5.45;100.00
17505;BME280;8870;50.950;11.762;2023-01-13T22:44:09;98147.56;;;5.28;100.00
17505;BME280;8870;50.950;11.762;2023-01-13T22:49:30;98154.28;;;5.22;100.00
17505;BME280;8870;50.950;11.762;2023-01-13T22:55:17;98151.06;;;5.29;100.00
17505;BME280;8870;50.950;11.762;2023-01-13T23:01:05;98154.28;;;5.22;100.00
17505;BME280;8870;50.950;11.762;2023-01-13T23:06:39;98151.22;;;5.27;100.00
17505;BME280;8870;50.950;11.762;2023-01-13T23:11:58;98161.03;;;5.27;100.00
17505;BME280;8870;50.950;11.762;2023-01-13T23:17:37;98172.94;;;5.13;100.00
17505;BME280;8870;50.950;11.762;2023-01-13T23:22:59;98171.63;;;5.07;100.00
17505;BME280;8870;50.950;11.762;2023-01-13T23:28:31;98164.75;;;5.04;100.00
17505;BME280;8870;50.950;11.762;2023-01-13T23:33:50;98158.72;;;5.12;100.00
17505;BME280;8870;50.950;11.762;2023-01-13T23:39:23;98171.94;;;5.14;100.00
17505;BME280;8870;50.950;11.762;2023-01-13T23:44:41;98180.28;;;5.20;100.00
17505;BME280;8870;50.950;11.762;2023-01-13T23:50:12;98173.50;;;5.16;100.00
17505;BME280;8870;50.950;11.762;2023-01-13T23:55:33;98180.00;;;5.23;100.00
